sensor_id;sensor_type;location;lat;lon;timestamp;P1;durP1;ratioP1;P2;durP2;ratioP2
9960;SDS011;5021;51.506;11.320;2022-11-20T00:00:55;14.67;;;9.77;;
9960;SDS011;5021;51.506;11.320;2022-11-20T00:03:21;14.50;;;10.27;;
9960;SDS011;5021;51.506;11.320;2022-11-20T00:05:47;16.83;;;9.83;;
9960;SDS011;5021;51.506;11.320;2022-11-20T00:08:14;17.20;;;10.80;;
9960;SDS011;5021;51.506;11.320;2022-11-20T00:10:40;18.17;;;11.90;;
9960;SDS011;5021;51.506;11.320;2022-11-20T00:13:06;14.77;;;10.33;;
9960;SDS011;5021;51.506;11.320;2022-11-20T00:15:33;16.03;;;10.67;;
9960;SDS011;5021;51.506;11.320;2022-11-20T00:17:59;13.27;;;9.17;;
9960;SDS011;5021;51.506;11.320;2022-11-20T00:20:25;13.93;;;9.13;;
9960;SDS011;5021;51.506;11.320;2022-11-20T00:22:51;12.87;;;8.80;;
9960;SDS011;5021;51.506;11.320;2022-11-20T00:25:17;11.70;;;7.90;;
9960;SDS011;5021;51.506;11.320;2022-11-20T00:27:43;11.07;;;8.37;;
9960;SDS011;5021;51.506;11.320;2022-11-20T00:30:09;11.23;;;7.93;;
9960;SDS011;5021;51.506;11.320;2022-11-20T00:32:36;11.27;;;8.40;;
9960;SDS011;5021;51.506;11.320;2022-11-20T00:35:02;11.23;;;8.27;;
9960;SDS011;5021;51.506;11.320;2022-11-20T00:37:28;10.53;;;7.97;;
9960;SDS011;5021;51.506;11.320;2022-11-20T00:39:54;9.97;;;7.30;;
9960;SDS011;5021;51.506;11.320;2022-11-20T00:42:20;10.00;;;7.50;;
9960;SDS011;5021;51.506;11.320;2022-11-20T00:44:46;12.03;;;8.30;;
9960;SDS011;5021;51.506;11.320;2022-11-20T00:47:12;11.13;;;7.70;;
9960;SDS011;5021;51.506;11.320;2022-11-20T00:49:38;10.27;;;7.77;;
9960;SDS011;5021;51.506;11.320;2022-11-20T00:52:04;8.97;;;7.53;;
9960;SDS011;5021;51.506;11.320;2022-11-20T00:54:30;9.60;;;7.60;;
9960;SDS011;5021;51.506;11.320;2022-11-20T00:56:56;10.40;;;7.93;;
9960;SDS011;5021;51.506;11.320;2022-11-20T00:59:22;9.47;;;7.20;;
9960;SDS011;5021;51.506;11.320;2022-11-20T01:01:48;10.40;;;8.10;;
9960;SDS011;5021;51.506;11.320;2022-11-20T01:04:14;10.70;;;7.60;;
9960;SDS011;5021;51.506;11.320;2022-11-20T01:06:40;12.00;;;8.03;;
9960;SDS011;5021;51.506;11.320;2022-11-20T01:09:08;9.40;;;7.37;;
9960;SDS011;5021;51.506;11.320;2022-11-20T01:11:35;9.80;;;7.33;;
9960;SDS011;5021;51.506;11.320;2022-11-20T01:14:02;9.73;;;7.17;;
9960;SDS011;5021;51.506;11.320;2022-11-20T01:16:30;9.93;;;7.67;;
9960;SDS011;5021;51.506;11.320;2022-11-20T01:18:57;8.87;;;6.63;;
9960;SDS011;5021;51.506;11.320;2022-11-20T01:21:28;7.63;;;6.07;;
9960;SDS011;5021;51.506;11.320;2022-11-20T01:23:54;9.27;;;7.30;;
9960;SDS011;5021;51.506;11.320;2022-11-20T01:26:21;11.37;;;8.70;;
9960;SDS011;5021;51.506;11.320;2022-11-20T01:28:48;11.53;;;7.80;;
9960;SDS011;5021;51.506;11.320;2022-11-20T01:31:47;11.47;;;8.73;;
9960;SDS011;5021;51.506;11.320;2022-11-20T01:34:08;11.67;;;8.73;;
9960;SDS011;5021;51.506;11.320;2022-11-20T01:36:35;13.00;;;8.40;;
9960;SDS011;5021;51.506;11.320;2022-11-20T01:39:03;12.10;;;8.27;;
9960;SDS011;5021;51.506;11.320;2022-11-20T01:41:30;10.53;;;8.13;;
9960;SDS011;5021;51.506;11.320;2022-11-20T01:44:17;10.30;;;7.50;;
9960;SDS011;5021;51.506;11.320;2022-11-20T01:49:50;9.63;;;7.47;;
9960;SDS011;5021;51.506;11.320;2022-11-20T01:52:11;8.57;;;6.70;;
9960;SDS011;5021;51.506;11.320;2022-11-20T01:54:41;8.17;;;6.13;;
9960;SDS011;5021;51.506;11.320;2022-11-20T01:57:08;7.67;;;5.80;;
9960;SDS011;5021;51.506;11.320;2022-11-20T01:59:37;9.00;;;6.60;;
9960;SDS011;5021;51.506;11.320;2022-11-20T02:02:05;8.80;;;7.10;;
9960;SDS011;5021;51.506;11.320;2022-11-20T02:04:31;9.20;;;6.90;;
9960;SDS011;5021;51.506;11.320;2022-11-20T02:06:59;11.77;;;7.10;;
9960;SDS011;5021;51.506;11.320;2022-11-20T02:09:25;9.10;;;7.33;;
9960;SDS011;5021;51.506;11.320;2022-11-20T02:11:52;10.07;;;6.97;;
9960;SDS011;5021;51.506;11.320;2022-11-20T02:14:18;11.13;;;7.73;;
9960;SDS011;5021;51.506;11.320;2022-11-20T02:16:45;9.20;;;7.20;;
9960;SDS011;5021;51.506;11.320;2022-11-20T02:19:16;9.30;;;6.93;;
9960;SDS011;5021;51.506;11.320;2022-11-20T02:21:45;10.83;;;7.17;;
9960;SDS011;5021;51.506;11.320;2022-11-20T02:24:13;9.73;;;6.37;;
9960;SDS011;5021;51.506;11.320;2022-11-20T02:26:50;10.53;;;7.93;;
9960;SDS011;5021;51.506;11.320;2022-11-20T02:29:17;7.70;;;6.33;;
9960;SDS011;5021;51.506;11.320;2022-11-20T02:31:45;8.07;;;6.50;;
9960;SDS011;5021;51.506;11.320;2022-11-20T02:34:11;7.53;;;5.93;;
9960;SDS011;5021;51.506;11.320;2022-11-20T02:36:38;8.00;;;5.90;;
9960;SDS011;5021;51.506;11.320;2022-11-20T02:39:04;7.20;;;5.40;;
9960;SDS011;5021;51.506;11.320;2022-11-20T02:41:32;5.87;;;5.03;;
9960;SDS011;5021;51.506;11.320;2022-11-20T02:43:58;6.77;;;5.27;;
9960;SDS011;5021;51.506;11.320;2022-11-20T02:46:24;6.27;;;4.93;;
9960;SDS011;5021;51.506;11.320;2022-11-20T02:48:50;6.63;;;5.67;;
9960;SDS011;5021;51.506;11.320;2022-11-20T02:51:16;7.57;;;5.80;;
9960;SDS011;5021;51.506;11.320;2022-11-20T02:53:42;7.07;;;5.77;;
9960;SDS011;5021;51.506;11.320;2022-11-20T02:56:08;7.60;;;6.43;;
9960;SDS011;5021;51.506;11.320;2022-11-20T02:58:34;7.90;;;6.30;;
9960;SDS011;5021;51.506;11.320;2022-11-20T03:01:00;8.43;;;6.47;;
9960;SDS011;5021;51.506;11.320;2022-11-20T03:03:26;8.87;;;6.80;;
9960;SDS011;5021;51.506;11.320;2022-11-20T03:05:52;9.70;;;7.00;;
9960;SDS011;5021;51.506;11.320;2022-11-20T03:08:18;9.57;;;7.23;;
9960;SDS011;5021;51.506;11.320;2022-11-20T03:10:44;12.40;;;7.87;;
9960;SDS011;5021;51.506;11.320;2022-11-20T03:13:10;10.23;;;6.80;;
9960;SDS011;5021;51.506;11.320;2022-11-20T03:15:36;9.67;;;6.97;;
9960;SDS011;5021;51.506;11.320;2022-11-20T03:18:03;10.67;;;7.43;;
9960;SDS011;5021;51.506;11.320;2022-11-20T03:20:29;9.33;;;7.10;;
9960;SDS011;5021;51.506;11.320;2022-11-20T03:22:55;11.77;;;7.33;;
9960;SDS011;5021;51.506;11.320;2022-11-20T03:25:21;9.33;;;6.67;;
9960;SDS011;5021;51.506;11.320;2022-11-20T03:27:47;12.03;;;8.00;;
9960;SDS011;5021;51.506;11.320;2022-11-20T03:30:13;9.40;;;6.70;;
9960;SDS011;5021;51.506;11.320;2022-11-20T03:32:40;12.10;;;7.07;;
9960;SDS011;5021;51.506;11.320;2022-11-20T03:35:06;10.03;;;6.93;;
9960;SDS011;5021;51.506;11.320;2022-11-20T03:37:32;13.50;;;7.57;;
9960;SDS011;5021;51.506;11.320;2022-11-20T03:39:58;8.93;;;6.83;;
9960;SDS011;5021;51.506;11.320;2022-11-20T03:42:24;10.17;;;6.33;;
9960;SDS011;5021;51.506;11.320;2022-11-20T03:45:09;8.37;;;6.57;;
9960;SDS011;5021;51.506;11.320;2022-11-20T03:47:35;7.47;;;5.87;;
9960;SDS011;5021;51.506;11.320;2022-11-20T03:50:01;6.80;;;5.50;;
9960;SDS011;5021;51.506;11.320;2022-11-20T03:52:27;8.57;;;5.60;;
9960;SDS011;5021;51.506;11.320;2022-11-20T03:54:53;8.43;;;6.27;;
9960;SDS011;5021;51.506;11.320;2022-11-20T03:57:19;7.97;;;6.50;;
9960;SDS011;5021;51.506;11.320;2022-11-20T03:59:45;8.63;;;6.20;;
9960;SDS011;5021;51.506;11.320;2022-11-20T04:02:11;8.43;;;6.27;;
9960;SDS011;5021;51.506;11.320;2022-11-20T04:04:37;7.70;;;5.93;;
9960;SDS011;5021;51.506;11.320;2022-11-20T04:07:03;7.70;;;5.77;;
9960;SDS011;5021;51.506;11.320;2022-11-20T04:09:29;8.73;;;5.43;;
9960;SDS011;5021;51.506;11.320;2022-11-20T04:11:55;7.20;;;5.63;;
9960;SDS011;5021;51.506;11.320;2022-11-20T04:14:21;8.30;;;6.13;;
9960;SDS011;5021;51.506;11.320;2022-11-20T04:16:47;9.57;;;6.03;;
9960;SDS011;5021;51.506;11.320;2022-11-20T04:19:14;7.77;;;6.07;;
9960;SDS011;5021;51.506;11.320;2022-11-20T04:21:41;6.80;;;6.10;;
9960;SDS011;5021;51.506;11.320;2022-11-20T04:24:07;7.60;;;6.20;;
9960;SDS011;5021;51.506;11.320;2022-11-20T04:26:33;7.87;;;6.90;;
9960;SDS011;5021;51.506;11.320;2022-11-20T04:28:59;8.37;;;6.10;;
9960;SDS011;5021;51.506;11.320;2022-11-20T04:31:30;7.60;;;5.87;;
9960;SDS011;5021;51.506;11.320;2022-11-20T04:33:59;8.20;;;6.23;;
9960;SDS011;5021;51.506;11.320;2022-11-20T04:36:26;8.87;;;6.90;;
9960;SDS011;5021;51.506;11.320;2022-11-20T04:38:59;9.23;;;6.37;;
9960;SDS011;5021;51.506;11.320;2022-11-20T04:41:27;9.13;;;6.70;;
9960;SDS011;5021;51.506;11.320;2022-11-20T04:43:54;9.37;;;6.70;;
9960;SDS011;5021;51.506;11.320;2022-11-20T04:46:28;12.17;;;7.03;;
9960;SDS011;5021;51.506;11.320;2022-11-20T04:48:55;9.50;;;6.60;;
9960;SDS011;5021;51.506;11.320;2022-11-20T04:51:21;8.10;;;6.13;;
9960;SDS011;5021;51.506;11.320;2022-11-20T04:53:46;7.50;;;5.87;;
9960;SDS011;5021;51.506;11.320;2022-11-20T04:56:13;7.50;;;6.03;;
9960;SDS011;5021;51.506;11.320;2022-11-20T04:58:39;8.97;;;6.37;;
9960;SDS011;5021;51.506;11.320;2022-11-20T05:01:06;6.87;;;5.63;;
9960;SDS011;5021;51.506;11.320;2022-11-20T05:03:32;8.67;;;6.13;;
9960;SDS011;5021;51.506;11.320;2022-11-20T05:06:05;8.40;;;6.27;;
9960;SDS011;5021;51.506;11.320;2022-11-20T05:08:31;6.60;;;5.67;;
9960;SDS011;5021;51.506;11.320;2022-11-20T05:11:01;6.27;;;5.63;;
9960;SDS011;5021;51.506;11.320;2022-11-20T05:13:28;7.43;;;5.67;;
9960;SDS011;5021;51.506;11.320;2022-11-20T05:15:53;8.67;;;6.80;;
9960;SDS011;5021;51.506;11.320;2022-11-20T05:18:19;8.70;;;6.53;;
9960;SDS011;5021;51.506;11.320;2022-11-20T05:20:45;8.63;;;6.40;;
9960;SDS011;5021;51.506;11.320;2022-11-20T05:23:11;8.60;;;6.83;;
9960;SDS011;5021;51.506;11.320;2022-11-20T05:25:37;9.07;;;7.23;;
9960;SDS011;5021;51.506;11.320;2022-11-20T05:28:03;7.97;;;6.37;;
9960;SDS011;5021;51.506;11.320;2022-11-20T05:30:29;8.43;;;6.27;;
9960;SDS011;5021;51.506;11.320;2022-11-20T05:32:55;7.70;;;6.27;;
9960;SDS011;5021;51.506;11.320;2022-11-20T05:35:21;7.77;;;6.73;;
9960;SDS011;5021;51.506;11.320;2022-11-20T05:37:47;10.07;;;6.90;;
9960;SDS011;5021;51.506;11.320;2022-11-20T05:40:13;9.33;;;7.37;;
9960;SDS011;5021;51.506;11.320;2022-11-20T05:42:39;9.77;;;6.87;;
9960;SDS011;5021;51.506;11.320;2022-11-20T05:45:08;10.40;;;7.50;;
9960;SDS011;5021;51.506;11.320;2022-11-20T05:47:34;9.10;;;6.60;;
9960;SDS011;5021;51.506;11.320;2022-11-20T05:50:00;9.53;;;7.30;;
9960;SDS011;5021;51.506;11.320;2022-11-20T05:52:29;8.27;;;6.70;;
9960;SDS011;5021;51.506;11.320;2022-11-20T05:54:55;9.70;;;7.63;;
9960;SDS011;5021;51.506;11.320;2022-11-20T05:57:21;10.53;;;7.10;;
9960;SDS011;5021;51.506;11.320;2022-11-20T05:59:47;9.00;;;7.23;;
9960;SDS011;5021;51.506;11.320;2022-11-20T06:02:13;10.73;;;7.67;;
9960;SDS011;5021;51.506;11.320;2022-11-20T06:04:39;9.90;;;7.83;;
9960;SDS011;5021;51.506;11.320;2022-11-20T06:07:05;10.10;;;7.27;;
9960;SDS011;5021;51.506;11.320;2022-11-20T06:09:32;9.97;;;7.87;;
9960;SDS011;5021;51.506;11.320;2022-11-20T06:11:58;8.20;;;6.93;;
9960;SDS011;5021;51.506;11.320;2022-11-20T06:14:24;9.00;;;7.20;;
9960;SDS011;5021;51.506;11.320;2022-11-20T06:16:50;10.80;;;8.30;;
9960;SDS011;5021;51.506;11.320;2022-11-20T06:19:16;10.23;;;7.83;;
9960;SDS011;5021;51.506;11.320;2022-11-20T06:21:42;10.40;;;8.37;;
9960;SDS011;5021;51.506;11.320;2022-11-20T06:24:11;13.90;;;8.27;;
9960;SDS011;5021;51.506;11.320;2022-11-20T06:26:37;10.83;;;8.00;;
9960;SDS011;5021;51.506;11.320;2022-11-20T06:29:03;12.53;;;8.63;;
9960;SDS011;5021;51.506;11.320;2022-11-20T06:31:29;14.53;;;8.43;;
9960;SDS011;5021;51.506;11.320;2022-11-20T06:33:57;11.60;;;8.43;;
9960;SDS011;5021;51.506;11.320;2022-11-20T06:36:23;12.33;;;8.77;;
9960;SDS011;5021;51.506;11.320;2022-11-20T06:38:49;10.70;;;7.83;;
9960;SDS011;5021;51.506;11.320;2022-11-20T06:41:16;13.83;;;9.80;;
9960;SDS011;5021;51.506;11.320;2022-11-20T06:43:43;13.10;;;8.63;;
9960;SDS011;5021;51.506;11.320;2022-11-20T06:46:09;26.73;;;15.00;;
9960;SDS011;5021;51.506;11.320;2022-11-20T06:48:35;30.87;;;17.07;;
9960;SDS011;5021;51.506;11.320;2022-11-20T06:51:05;17.97;;;12.20;;
9960;SDS011;5021;51.506;11.320;2022-11-20T06:53:32;15.77;;;9.70;;
9960;SDS011;5021;51.506;11.320;2022-11-20T06:55:58;15.47;;;9.50;;
9960;SDS011;5021;51.506;11.320;2022-11-20T06:58:26;16.77;;;9.50;;
9960;SDS011;5021;51.506;11.320;2022-11-20T07:00:52;12.27;;;9.03;;
9960;SDS011;5021;51.506;11.320;2022-11-20T07:03:18;12.23;;;9.10;;
9960;SDS011;5021;51.506;11.320;2022-11-20T07:05:44;10.97;;;8.43;;
9960;SDS011;5021;51.506;11.320;2022-11-20T07:08:11;13.47;;;9.00;;
9960;SDS011;5021;51.506;11.320;2022-11-20T07:10:37;11.33;;;8.77;;
9960;SDS011;5021;51.506;11.320;2022-11-20T07:13:03;14.20;;;9.50;;
9960;SDS011;5021;51.506;11.320;2022-11-20T07:15:29;12.53;;;8.97;;
9960;SDS011;5021;51.506;11.320;2022-11-20T07:17:58;11.17;;;8.53;;
9960;SDS011;5021;51.506;11.320;2022-11-20T07:20:24;18.03;;;10.77;;
9960;SDS011;5021;51.506;11.320;2022-11-20T07:22:54;13.17;;;9.97;;
9960;SDS011;5021;51.506;11.320;2022-11-20T07:25:20;19.50;;;12.60;;
9960;SDS011;5021;51.506;11.320;2022-11-20T07:27:46;17.80;;;12.23;;
9960;SDS011;5021;51.506;11.320;2022-11-20T07:30:12;16.23;;;12.13;;
9960;SDS011;5021;51.506;11.320;2022-11-20T07:32:39;18.13;;;12.70;;
9960;SDS011;5021;51.506;11.320;2022-11-20T07:35:05;19.70;;;12.63;;
9960;SDS011;5021;51.506;11.320;2022-11-20T07:37:33;20.17;;;12.97;;
9960;SDS011;5021;51.506;11.320;2022-11-20T07:39:59;26.70;;;16.97;;
9960;SDS011;5021;51.506;11.320;2022-11-20T07:42:25;28.40;;;15.57;;
9960;SDS011;5021;51.506;11.320;2022-11-20T07:44:51;31.17;;;15.67;;
9960;SDS011;5021;51.506;11.320;2022-11-20T07:47:17;26.97;;;16.70;;
9960;SDS011;5021;51.506;11.320;2022-11-20T07:49:44;27.10;;;16.43;;
9960;SDS011;5021;51.506;11.320;2022-11-20T07:52:10;27.73;;;15.90;;
9960;SDS011;5021;51.506;11.320;2022-11-20T07:54:36;27.73;;;17.33;;
9960;SDS011;5021;51.506;11.320;2022-11-20T07:57:02;31.63;;;19.57;;
9960;SDS011;5021;51.506;11.320;2022-11-20T07:59:28;36.13;;;19.93;;
9960;SDS011;5021;51.506;11.320;2022-11-20T08:01:55;56.60;;;32.97;;
9960;SDS011;5021;51.506;11.320;2022-11-20T08:04:21;68.53;;;40.90;;
9960;SDS011;5021;51.506;11.320;2022-11-20T08:06:48;42.13;;;26.43;;
9960;SDS011;5021;51.506;11.320;2022-11-20T08:09:14;28.57;;;17.13;;
9960;SDS011;5021;51.506;11.320;2022-11-20T08:11:41;23.73;;;16.03;;
9960;SDS011;5021;51.506;11.320;2022-11-20T08:14:25;21.50;;;13.63;;
9960;SDS011;5021;51.506;11.320;2022-11-20T08:16:52;27.57;;;15.53;;
9960;SDS011;5021;51.506;11.320;2022-11-20T08:19:19;30.70;;;17.87;;
9960;SDS011;5021;51.506;11.320;2022-11-20T08:21:45;26.00;;;16.20;;
9960;SDS011;5021;51.506;11.320;2022-11-20T08:24:12;29.23;;;17.57;;
9960;SDS011;5021;51.506;11.320;2022-11-20T08:26:38;28.80;;;17.83;;
9960;SDS011;5021;51.506;11.320;2022-11-20T08:29:05;25.53;;;15.97;;
9960;SDS011;5021;51.506;11.320;2022-11-20T08:31:32;24.57;;;16.57;;
9960;SDS011;5021;51.506;11.320;2022-11-20T08:33:58;25.20;;;16.63;;
9960;SDS011;5021;51.506;11.320;2022-11-20T08:36:25;31.20;;;19.40;;
9960;SDS011;5021;51.506;11.320;2022-11-20T08:38:54;32.37;;;19.53;;
9960;SDS011;5021;51.506;11.320;2022-11-20T08:41:22;29.13;;;19.47;;
9960;SDS011;5021;51.506;11.320;2022-11-20T08:44:02;31.53;;;21.10;;
9960;SDS011;5021;51.506;11.320;2022-11-20T08:46:39;32.17;;;19.43;;
9960;SDS011;5021;51.506;11.320;2022-11-20T08:49:07;29.30;;;18.53;;
9960;SDS011;5021;51.506;11.320;2022-11-20T08:51:34;30.07;;;18.87;;
9960;SDS011;5021;51.506;11.320;2022-11-20T08:54:00;30.60;;;19.77;;
9960;SDS011;5021;51.506;11.320;2022-11-20T08:56:27;28.50;;;17.63;;
9960;SDS011;5021;51.506;11.320;2022-11-20T08:58:53;27.90;;;18.17;;
9960;SDS011;5021;51.506;11.320;2022-11-20T09:01:20;26.00;;;17.60;;
9960;SDS011;5021;51.506;11.320;2022-11-20T09:03:47;32.13;;;21.77;;
9960;SDS011;5021;51.506;11.320;2022-11-20T09:06:13;33.13;;;21.03;;
9960;SDS011;5021;51.506;11.320;2022-11-20T09:08:40;29.03;;;19.90;;
9960;SDS011;5021;51.506;11.320;2022-11-20T09:11:06;28.13;;;18.57;;
9960;SDS011;5021;51.506;11.320;2022-11-20T09:13:33;30.43;;;20.33;;
9960;SDS011;5021;51.506;11.320;2022-11-20T09:16:01;31.03;;;20.43;;
9960;SDS011;5021;51.506;11.320;2022-11-20T09:18:28;29.00;;;19.30;;
9960;SDS011;5021;51.506;11.320;2022-11-20T09:20:57;25.50;;;18.07;;
9960;SDS011;5021;51.506;11.320;2022-11-20T09:23:23;28.70;;;19.13;;
9960;SDS011;5021;51.506;11.320;2022-11-20T09:25:50;26.53;;;18.30;;
9960;SDS011;5021;51.506;11.320;2022-11-20T09:28:17;28.73;;;20.20;;
9960;SDS011;5021;51.506;11.320;2022-11-20T09:30:44;26.47;;;18.50;;
9960;SDS011;5021;51.506;11.320;2022-11-20T09:33:10;27.03;;;17.87;;
9960;SDS011;5021;51.506;11.320;2022-11-20T09:35:36;22.60;;;16.20;;
9960;SDS011;5021;51.506;11.320;2022-11-20T09:38:06;23.73;;;16.03;;
9960;SDS011;5021;51.506;11.320;2022-11-20T09:40:32;22.13;;;15.53;;
9960;SDS011;5021;51.506;11.320;2022-11-20T09:43:18;26.10;;;16.63;;
9960;SDS011;5021;51.506;11.320;2022-11-20T09:54:08;18.77;;;13.80;;
9960;SDS011;5021;51.506;11.320;2022-11-20T09:56:37;17.57;;;12.97;;
9960;SDS011;5021;51.506;11.320;2022-11-20T09:59:05;17.80;;;13.33;;
9960;SDS011;5021;51.506;11.320;2022-11-20T10:01:34;17.17;;;13.97;;
9960;SDS011;5021;51.506;11.320;2022-11-20T10:04:15;18.53;;;13.37;;
9960;SDS011;5021;51.506;11.320;2022-11-20T10:12:00;16.63;;;13.60;;
9960;SDS011;5021;51.506;11.320;2022-11-20T10:17:16;16.17;;;13.07;;
9960;SDS011;5021;51.506;11.320;2022-11-20T10:25:19;15.90;;;11.77;;
9960;SDS011;5021;51.506;11.320;2022-11-20T10:30:19;18.77;;;13.33;;
9960;SDS011;5021;51.506;11.320;2022-11-20T10:32:48;18.67;;;14.00;;
9960;SDS011;5021;51.506;11.320;2022-11-20T10:37:44;16.57;;;13.33;;
9960;SDS011;5021;51.506;11.320;2022-11-20T10:42:57;16.93;;;13.30;;
9960;SDS011;5021;51.506;11.320;2022-11-20T10:47:56;17.13;;;13.30;;
9960;SDS011;5021;51.506;11.320;2022-11-20T10:50:31;16.23;;;12.43;;
9960;SDS011;5021;51.506;11.320;2022-11-20T10:55:33;15.87;;;12.00;;
9960;SDS011;5021;51.506;11.320;2022-11-20T10:58:21;15.60;;;11.93;;
9960;SDS011;5021;51.506;11.320;2022-11-20T11:00:51;17.27;;;12.63;;
9960;SDS011;5021;51.506;11.320;2022-11-20T11:08:14;18.23;;;13.17;;
9960;SDS011;5021;51.506;11.320;2022-11-20T11:11:00;16.70;;;12.50;;
9960;SDS011;5021;51.506;11.320;2022-11-20T11:13:29;18.03;;;13.30;;
9960;SDS011;5021;51.506;11.320;2022-11-20T11:15:57;16.67;;;12.83;;
9960;SDS011;5021;51.506;11.320;2022-11-20T11:18:26;15.23;;;11.97;;
9960;SDS011;5021;51.506;11.320;2022-11-20T11:20:53;14.97;;;12.30;;
9960;SDS011;5021;51.506;11.320;2022-11-20T11:23:39;16.93;;;12.30;;
9960;SDS011;5021;51.506;11.320;2022-11-20T11:26:06;17.50;;;12.60;;
9960;SDS011;5021;51.506;11.320;2022-11-20T11:28:33;19.10;;;13.97;;
9960;SDS011;5021;51.506;11.320;2022-11-20T11:30:59;18.63;;;13.03;;
9960;SDS011;5021;51.506;11.320;2022-11-20T11:33:27;16.20;;;12.50;;
9960;SDS011;5021;51.506;11.320;2022-11-20T11:35:54;15.17;;;12.10;;
9960;SDS011;5021;51.506;11.320;2022-11-20T11:40:54;15.30;;;12.07;;
9960;SDS011;5021;51.506;11.320;2022-11-20T11:43:25;15.57;;;12.17;;
9960;SDS011;5021;51.506;11.320;2022-11-20T11:46:24;16.30;;;12.23;;
9960;SDS011;5021;51.506;11.320;2022-11-20T11:49:33;17.70;;;12.90;;
9960;SDS011;5021;51.506;11.320;2022-11-20T11:51:45;17.60;;;12.03;;
9960;SDS011;5021;51.506;11.320;2022-11-20T11:54:18;17.57;;;13.00;;
9960;SDS011;5021;51.506;11.320;2022-11-20T11:56:46;16.67;;;13.13;;
9960;SDS011;5021;51.506;11.320;2022-11-20T11:59:15;17.57;;;12.53;;
9960;SDS011;5021;51.506;11.320;2022-11-20T12:01:46;16.37;;;12.53;;
9960;SDS011;5021;51.506;11.320;2022-11-20T12:04:16;15.40;;;12.67;;
9960;SDS011;5021;51.506;11.320;2022-11-20T12:06:44;15.77;;;12.03;;
9960;SDS011;5021;51.506;11.320;2022-11-20T12:09:12;19.03;;;12.93;;
9960;SDS011;5021;51.506;11.320;2022-11-20T12:14:50;17.17;;;12.37;;
9960;SDS011;5021;51.506;11.320;2022-11-20T12:16:53;16.97;;;12.70;;
9960;SDS011;5021;51.506;11.320;2022-11-20T12:19:23;16.57;;;12.80;;
9960;SDS011;5021;51.506;11.320;2022-11-20T12:22:34;15.53;;;12.60;;
9960;SDS011;5021;51.506;11.320;2022-11-20T12:32:25;13.57;;;11.23;;
9960;SDS011;5021;51.506;11.320;2022-11-20T12:37:38;14.40;;;11.77;;
9960;SDS011;5021;51.506;11.320;2022-11-20T12:42:55;14.80;;;12.40;;
9960;SDS011;5021;51.506;11.320;2022-11-20T12:56:07;16.60;;;11.93;;
9960;SDS011;5021;51.506;11.320;2022-11-20T13:06:41;14.80;;;11.70;;
9960;SDS011;5021;51.506;11.320;2022-11-20T13:09:10;15.17;;;11.33;;
9960;SDS011;5021;51.506;11.320;2022-11-20T13:14:40;16.87;;;12.27;;
9960;SDS011;5021;51.506;11.320;2022-11-20T13:17:14;16.27;;;11.93;;
9960;SDS011;5021;51.506;11.320;2022-11-20T13:19:53;15.10;;;11.90;;
9960;SDS011;5021;51.506;11.320;2022-11-20T13:22:27;17.03;;;12.33;;
9960;SDS011;5021;51.506;11.320;2022-11-20T13:24:53;15.80;;;11.70;;
9960;SDS011;5021;51.506;11.320;2022-11-20T13:27:21;16.90;;;12.40;;
9960;SDS011;5021;51.506;11.320;2022-11-20T13:32:49;14.63;;;10.77;;
9960;SDS011;5021;51.506;11.320;2022-11-20T13:35:32;16.10;;;12.30;;
9960;SDS011;5021;51.506;11.320;2022-11-20T13:38:03;16.03;;;12.47;;
9960;SDS011;5021;51.506;11.320;2022-11-20T13:40:32;15.23;;;11.60;;
9960;SDS011;5021;51.506;11.320;2022-11-20T13:45:34;15.93;;;11.90;;
9960;SDS011;5021;51.506;11.320;2022-11-20T13:48:04;15.57;;;11.93;;
9960;SDS011;5021;51.506;11.320;2022-11-20T13:50:44;16.87;;;12.47;;
9960;SDS011;5021;51.506;11.320;2022-11-20T13:55:50;15.33;;;11.47;;
9960;SDS011;5021;51.506;11.320;2022-11-20T14:01:14;16.10;;;11.23;;
9960;SDS011;5021;51.506;11.320;2022-11-20T14:03:43;17.27;;;11.47;;
9960;SDS011;5021;51.506;11.320;2022-11-20T14:06:15;17.97;;;12.33;;
9960;SDS011;5021;51.506;11.320;2022-11-20T14:08:47;14.87;;;11.53;;
9960;SDS011;5021;51.506;11.320;2022-11-20T14:11:20;15.50;;;11.93;;
9960;SDS011;5021;51.506;11.320;2022-11-20T14:13:52;15.63;;;11.90;;
9960;SDS011;5021;51.506;11.320;2022-11-20T14:16:22;18.27;;;12.40;;
9960;SDS011;5021;51.506;11.320;2022-11-20T14:18:49;15.87;;;11.73;;
9960;SDS011;5021;51.506;11.320;2022-11-20T14:21:36;16.97;;;11.83;;
9960;SDS011;5021;51.506;11.320;2022-11-20T14:24:05;15.63;;;11.63;;
9960;SDS011;5021;51.506;11.320;2022-11-20T14:26:32;16.23;;;12.37;;
9960;SDS011;5021;51.506;11.320;2022-11-20T14:29:04;15.23;;;12.07;;
9960;SDS011;5021;51.506;11.320;2022-11-20T14:31:32;16.20;;;11.87;;
9960;SDS011;5021;51.506;11.320;2022-11-20T14:34:17;16.43;;;12.40;;
9960;SDS011;5021;51.506;11.320;2022-11-20T14:36:47;15.93;;;11.90;;
9960;SDS011;5021;51.506;11.320;2022-11-20T14:39:37;18.10;;;12.57;;
9960;SDS011;5021;51.506;11.320;2022-11-20T14:42:13;15.87;;;11.67;;
9960;SDS011;5021;51.506;11.320;2022-11-20T14:44:41;16.50;;;11.40;;
9960;SDS011;5021;51.506;11.320;2022-11-20T14:47:08;15.93;;;11.53;;
9960;SDS011;5021;51.506;11.320;2022-11-20T14:49:37;16.40;;;12.07;;
9960;SDS011;5021;51.506;11.320;2022-11-20T14:52:14;18.83;;;12.30;;
9960;SDS011;5021;51.506;11.320;2022-11-20T14:54:47;17.33;;;11.40;;
9960;SDS011;5021;51.506;11.320;2022-11-20T14:59:46;15.87;;;11.77;;
9960;SDS011;5021;51.506;11.320;2022-11-20T15:02:13;18.77;;;12.50;;
9960;SDS011;5021;51.506;11.320;2022-11-20T15:04:45;17.17;;;12.53;;
9960;SDS011;5021;51.506;11.320;2022-11-20T15:07:22;16.17;;;11.43;;
9960;SDS011;5021;51.506;11.320;2022-11-20T15:09:58;22.77;;;12.07;;
9960;SDS011;5021;51.506;11.320;2022-11-20T15:12:25;15.30;;;11.63;;
9960;SDS011;5021;51.506;11.320;2022-11-20T15:14:52;15.80;;;11.57;;
9960;SDS011;5021;51.506;11.320;2022-11-20T15:17:20;17.93;;;12.27;;
9960;SDS011;5021;51.506;11.320;2022-11-20T15:19:48;16.10;;;11.57;;
9960;SDS011;5021;51.506;11.320;2022-11-20T15:22:14;15.50;;;11.63;;
9960;SDS011;5021;51.506;11.320;2022-11-20T15:24:45;14.87;;;11.10;;
9960;SDS011;5021;51.506;11.320;2022-11-20T15:27:11;16.07;;;11.43;;
9960;SDS011;5021;51.506;11.320;2022-11-20T15:29:38;16.67;;;12.17;;
9960;SDS011;5021;51.506;11.320;2022-11-20T15:32:04;17.90;;;12.47;;
9960;SDS011;5021;51.506;11.320;2022-11-20T15:34:32;17.80;;;12.53;;
9960;SDS011;5021;51.506;11.320;2022-11-20T15:36:58;16.40;;;12.40;;
9960;SDS011;5021;51.506;11.320;2022-11-20T15:39:24;17.80;;;12.07;;
9960;SDS011;5021;51.506;11.320;2022-11-20T15:41:51;18.77;;;12.07;;
9960;SDS011;5021;51.506;11.320;2022-11-20T15:44:17;17.27;;;11.93;;
9960;SDS011;5021;51.506;11.320;2022-11-20T15:46:44;18.37;;;12.67;;
9960;SDS011;5021;51.506;11.320;2022-11-20T15:49:14;16.77;;;11.93;;
9960;SDS011;5021;51.506;11.320;2022-11-20T15:51:44;16.30;;;11.00;;
9960;SDS011;5021;51.506;11.320;2022-11-20T15:54:13;18.03;;;12.50;;
9960;SDS011;5021;51.506;11.320;2022-11-20T15:56:40;18.37;;;12.93;;
9960;SDS011;5021;51.506;11.320;2022-11-20T15:59:07;17.87;;;12.30;;
9960;SDS011;5021;51.506;11.320;2022-11-20T16:01:33;17.93;;;12.03;;
9960;SDS011;5021;51.506;11.320;2022-11-20T16:04:00;17.90;;;12.00;;
9960;SDS011;5021;51.506;11.320;2022-11-20T16:06:26;23.87;;;14.17;;
9960;SDS011;5021;51.506;11.320;2022-11-20T16:08:53;18.90;;;13.07;;
9960;SDS011;5021;51.506;11.320;2022-11-20T16:11:19;18.90;;;12.37;;
9960;SDS011;5021;51.506;11.320;2022-11-20T16:13:45;18.37;;;12.50;;
9960;SDS011;5021;51.506;11.320;2022-11-20T16:16:33;17.27;;;12.00;;
9960;SDS011;5021;51.506;11.320;2022-11-20T16:18:59;17.83;;;12.57;;
9960;SDS011;5021;51.506;11.320;2022-11-20T16:21:26;18.70;;;13.00;;
9960;SDS011;5021;51.506;11.320;2022-11-20T16:23:59;21.27;;;13.47;;
9960;SDS011;5021;51.506;11.320;2022-11-20T16:26:26;17.57;;;12.50;;
9960;SDS011;5021;51.506;11.320;2022-11-20T16:28:52;20.20;;;13.57;;